createdAt,value
2022-12-31T00:00:17.801Z,78.724823
2022-12-31T00:05:17.918Z,78.723944
2022-12-31T00:10:16.346Z,78.610563
2022-12-31T00:15:15.817Z,79.447518
2022-12-31T00:20:16.721Z,80.586620
2022-12-31T00:25:16.066Z,81.673571
2022-12-31T00:30:18.115Z,81.815385
2022-12-31T00:35:18.116Z,82.047552
2022-12-31T00:40:15.823Z,81.411189
2022-12-31T00:45:16.427Z,81.992199
2022-12-31T00:50:16.177Z,82.080851
2022-12-31T00:55:16.218Z,81.925714
2022-12-31T01:00:16.477Z,81.349296
2022-12-31T01:05:16.356Z,80.633566
2022-12-31T01:10:15.947Z,79.873793
2022-12-31T01:15:15.697Z,79.055172
2022-12-31T01:20:16.833Z,78.867361
2022-12-31T01:25:16.953Z,78.563889
2022-12-31T01:30:16.974Z,78.714685
2022-12-31T01:35:16.031Z,78.806164
2022-12-31T01:40:16.040Z,78.360690
2022-12-31T01:45:16.319Z,78.060000
2022-12-31T01:50:15.643Z,78.974306
2022-12-31T01:55:15.985Z,81.639286
2022-12-31T02:00:15.804Z,83.905714
2022-12-31T02:05:16.977Z,84.500709
2022-12-31T02:10:15.899Z,84.284507
2022-12-31T02:15:15.624Z,84.287586
2022-12-31T02:20:17.475Z,83.062411
2022-12-31T02:25:17.481Z,82.308511
2022-12-31T02:30:16.373Z,82.545390
2022-12-31T02:35:16.195Z,82.934286
2022-12-31T02:40:15.830Z,82.697842
2022-12-31T02:45:16.325Z,82.272464
2022-12-31T02:50:15.953Z,82.330000
2022-12-31T02:55:15.582Z,82.533099
2022-12-31T03:00:16.450Z,84.171631
2022-12-31T03:05:17.775Z,85.631250
2022-12-31T03:10:16.456Z,86.152083
2022-12-31T03:15:18.816Z,86.133099
2022-12-31T03:20:17.700Z,85.556835
2022-12-31T03:25:16.162Z,85.780851
2022-12-31T03:30:16.962Z,85.553901
2022-12-31T03:35:16.911Z,84.924113
2022-12-31T03:40:16.302Z,84.359028
2022-12-31T03:45:15.889Z,83.341135
2022-12-31T03:50:15.842Z,82.239007
2022-12-31T03:55:16.833Z,81.709859
2022-12-31T04:00:17.278Z,81.395105
2022-12-31T04:05:15.903Z,80.737324
2022-12-31T04:10:16.106Z,80.786429
2022-12-31T04:15:16.667Z,80.733571
2022-12-31T04:20:17.001Z,80.909286
2022-12-31T04:25:16.144Z,80.926087
2022-12-31T04:30:16.252Z,80.899270
2022-12-31T04:35:16.490Z,80.950000
2022-12-31T04:40:16.166Z,80.819853
2022-12-31T04:45:15.921Z,81.023741
2022-12-31T04:50:16.978Z,80.970504
2022-12-31T04:55:16.481Z,80.586957
2022-12-31T05:00:16.072Z,80.925362
2022-12-31T05:05:16.544Z,81.782979
2022-12-31T05:10:16.548Z,81.879286
2022-12-31T05:15:17.319Z,81.208511
2022-12-31T05:20:15.999Z,81.046809
2022-12-31T05:25:16.498Z,80.542857
2022-12-31T05:30:16.405Z,81.225000
2022-12-31T05:35:17.266Z,82.287857
2022-12-31T05:40:16.102Z,82.371631
2022-12-31T05:45:16.061Z,82.020144
2022-12-31T05:50:16.592Z,81.646043
2022-12-31T05:55:16.019Z,81.608633
2022-12-31T06:00:16.139Z,81.385612
2022-12-31T06:05:19.722Z,81.871223
2022-12-31T06:10:16.179Z,81.873571
2022-12-31T06:15:16.568Z,81.525714
2022-12-31T06:20:17.336Z,81.269286
2022-12-31T06:25:16.453Z,81.036429
2022-12-31T06:30:17.547Z,80.982270
2022-12-31T06:35:17.068Z,81.177305
2022-12-31T06:40:16.382Z,81.117021
2022-12-31T06:45:15.945Z,81.285000
2022-12-31T06:50:17.851Z,81.471429
2022-12-31T06:55:16.117Z,81.030496
2022-12-31T07:00:16.203Z,80.987143
2022-12-31T07:05:15.826Z,81.509155
2022-12-31T07:10:17.937Z,81.692254
2022-12-31T07:15:16.237Z,81.992754
2022-12-31T07:20:16.527Z,82.107971
2022-12-31T07:25:15.730Z,82.376596
2022-12-31T07:30:16.856Z,82.698551
2022-12-31T07:35:16.609Z,82.967626
2022-12-31T07:40:16.278Z,82.941727
2022-12-31T07:45:16.463Z,82.370803
2022-12-31T07:50:16.074Z,81.680576
2022-12-31T07:55:16.666Z,81.322302
2022-12-31T08:00:19.480Z,81.289781
2022-12-31T08:05:17.669Z,81.356835
2022-12-31T08:10:18.240Z,81.316547
2022-12-31T08:15:17.869Z,81.066906
2022-12-31T08:20:15.917Z,80.642754
2022-12-31T08:25:15.818Z,80.487770
2022-12-31T08:30:15.729Z,80.733094
2022-12-31T08:35:16.782Z,81.050000
2022-12-31T08:40:15.658Z,80.927737
2022-12-31T08:45:16.521Z,80.907971
2022-12-31T08:50:16.582Z,80.891304
2022-12-31T08:55:16.404Z,81.417391
2022-12-31T09:00:17.506Z,81.702206
2022-12-31T09:05:15.659Z,81.602190
2022-12-31T09:10:16.384Z,81.471942
2022-12-31T09:15:15.903Z,81.602878
2022-12-31T09:20:16.613Z,81.301439
2022-12-31T09:25:15.793Z,81.123913
2022-12-31T09:30:17.185Z,81.707914
2022-12-31T09:35:22.286Z,81.625180
2022-12-31T09:40:16.164Z,81.731884
2022-12-31T09:45:17.745Z,82.141727
2022-12-31T09:50:16.288Z,82.370803
2022-12-31T09:55:16.408Z,82.697794
2022-12-31T10:00:17.785Z,82.592029
2022-12-31T10:05:17.215Z,81.923358
2022-12-31T10:10:17.016Z,81.456934
2022-12-31T10:15:23.461Z,81.471324
2022-12-31T10:20:15.761Z,81.498519
2022-12-31T10:25:17.193Z,81.642754
2022-12-31T10:30:22.237Z,81.692086
2022-12-31T10:35:17.846Z,81.767883
2022-12-31T10:40:16.374Z,81.914599
2022-12-31T10:45:16.795Z,81.997794
2022-12-31T10:50:17.263Z,82.094964
2022-12-31T10:55:16.992Z,81.989928
2022-12-31T11:00:17.643Z,81.892806
2022-12-31T11:05:16.848Z,82.143262
2022-12-31T11:10:18.544Z,82.097183
2022-12-31T11:15:16.066Z,81.806475
2022-12-31T11:20:17.579Z,82.007246
2022-12-31T11:25:26.462Z,82.142143
2022-12-31T11:30:18.401Z,82.031206
2022-12-31T11:35:16.419Z,81.167143
2022-12-31T11:40:16.589Z,80.913571
2022-12-31T11:45:15.756Z,79.635664
2022-12-31T11:50:16.209Z,79.618310
2022-12-31T11:55:17.213Z,79.657447
2022-12-31T12:00:16.670Z,79.918310
2022-12-31T12:05:17.352Z,79.544056
2022-12-31T12:10:21.716Z,79.773944
2022-12-31T12:15:17.959Z,80.109220
2022-12-31T12:20:17.082Z,79.812857
2022-12-31T12:25:17.229Z,80.115000
2022-12-31T12:30:17.098Z,80.051449
2022-12-31T12:35:15.478Z,79.746429
2022-12-31T12:40:16.793Z,79.973571
2022-12-31T12:45:16.825Z,80.043262
2022-12-31T12:50:17.083Z,80.362590
2022-12-31T12:55:16.118Z,80.064493
2022-12-31T13:00:18.383Z,79.129286
2022-12-31T13:05:16.391Z,78.824823
2022-12-31T13:10:17.044Z,79.212766
2022-12-31T13:15:19.395Z,78.687143
2022-12-31T13:20:17.210Z,78.994366
2022-12-31T13:25:18.375Z,79.104286
2022-12-31T13:30:16.198Z,79.042857
2022-12-31T13:35:17.319Z,78.337762
2022-12-31T13:40:17.273Z,78.075524
2022-12-31T13:45:16.285Z,78.104895
2022-12-31T13:50:17.278Z,77.872028
2022-12-31T13:55:15.985Z,78.690141
2022-12-31T14:00:17.369Z,79.165468
2022-12-31T14:05:16.577Z,79.031206
2022-12-31T14:10:16.722Z,79.514388
2022-12-31T14:15:19.427Z,80.072535
2022-12-31T14:20:17.904Z,80.326056
2022-12-31T14:25:16.651Z,80.564029
2022-12-31T14:30:16.270Z,81.434783
2022-12-31T14:35:17.193Z,81.692143
2022-12-31T14:40:16.437Z,81.760432
2022-12-31T14:45:17.031Z,82.450360
2022-12-31T14:50:16.907Z,82.550000
2022-12-31T14:55:16.971Z,82.635766
2022-12-31T15:00:16.280Z,82.728986
2022-12-31T15:05:18.364Z,83.029710
2022-12-31T15:10:16.282Z,83.088235
2022-12-31T15:15:16.547Z,82.897826
2022-12-31T15:20:18.160Z,82.765714
2022-12-31T15:25:17.394Z,82.270803
2022-12-31T15:30:17.422Z,82.569784
2022-12-31T15:35:16.739Z,83.351449
2022-12-31T15:40:16.076Z,84.082734
2022-12-31T15:45:16.824Z,84.537410
2022-12-31T15:50:16.929Z,84.697826
2022-12-31T15:55:18.314Z,84.900000
2022-12-31T16:00:17.322Z,84.992086
2022-12-31T16:05:17.168Z,85.026277
2022-12-31T16:10:15.700Z,84.491971
2022-12-31T16:15:18.010Z,84.239855
2022-12-31T16:20:21.646Z,84.179856
2022-12-31T16:25:32.867Z,84.032374
2022-12-31T16:30:17.407Z,84.400725
2022-12-31T16:35:23.016Z,84.545255
2022-12-31T16:40:15.986Z,84.650714
2022-12-31T16:45:16.636Z,84.525362
2022-12-31T16:50:16.067Z,84.675000
2022-12-31T16:55:16.700Z,84.661702
2022-12-31T17:00:16.190Z,84.978417
2022-12-31T17:05:18.225Z,85.054676
2022-12-31T17:10:18.938Z,84.726950
2022-12-31T17:15:18.362Z,84.297887
2022-12-31T17:20:16.391Z,83.942958
2022-12-31T17:25:16.684Z,83.889510
2022-12-31T17:30:16.318Z,83.135211
2022-12-31T17:35:16.484Z,82.533094
2022-12-31T17:40:49.808Z,82.592857
2022-12-31T17:45:16.171Z,82.683217
2022-12-31T17:50:17.545Z,83.105755
2022-12-31T17:55:17.162Z,82.866429
2022-12-31T18:00:16.765Z,82.419424
2022-12-31T18:05:17.167Z,82.665714
2022-12-31T18:10:16.168Z,83.180282
2022-12-31T18:15:21.174Z,83.485915
2022-12-31T18:20:15.856Z,83.529371
2022-12-31T18:25:16.304Z,83.439860
2022-12-31T18:30:16.558Z,82.998601
2022-12-31T18:35:33.318Z,82.962937
2022-12-31T18:40:16.663Z,82.620863
2022-12-31T18:45:17.143Z,81.912057
2022-12-31T18:50:17.378Z,81.848571
2022-12-31T18:55:16.390Z,81.970000
2022-12-31T19:00:16.818Z,81.351079
2022-12-31T19:05:18.803Z,81.149286
2022-12-31T19:10:17.292Z,80.495620
2022-12-31T19:15:16.661Z,80.322302
2022-12-31T19:20:17.855Z,80.315714
2022-12-31T19:25:15.827Z,80.341844
2022-12-31T19:30:16.243Z,80.888732
2022-12-31T19:35:16.716Z,80.318881
2022-12-31T19:40:16.497Z,79.159859
2022-12-31T19:45:16.151Z,79.369863
2022-12-31T19:50:16.504Z,79.555479
2022-12-31T19:55:17.636Z,79.525517
2022-12-31T20:00:16.504Z,78.680556
2022-12-31T20:05:18.354Z,79.010638
2022-12-31T20:10:18.944Z,78.916312
2022-12-31T20:15:16.467Z,78.601418
2022-12-31T20:20:17.137Z,78.867143
2022-12-31T20:25:16.173Z,78.471831
2022-12-31T20:30:16.107Z,77.561538
2022-12-31T20:35:16.557Z,77.176596
2022-12-31T20:40:22.191Z,77.522535
2022-12-31T20:45:16.424Z,77.300699
2022-12-31T20:50:17.711Z,77.031690
2022-12-31T20:55:15.730Z,77.153571
2022-12-31T21:00:15.765Z,77.102128
2022-12-31T21:05:16.177Z,77.108571
2022-12-31T21:10:16.711Z,78.098571
2022-12-31T21:15:17.572Z,78.543571
2022-12-31T21:20:16.837Z,78.141135
2022-12-31T21:25:15.641Z,78.032867
2022-12-31T21:30:19.385Z,77.400000
2022-12-31T21:36:04.237Z,77.308511
2022-12-31T21:40:18.217Z,76.325175
2022-12-31T21:45:17.111Z,76.160417
2022-12-31T21:50:15.598Z,75.345517
2022-12-31T21:55:16.177Z,74.990972
2022-12-31T22:00:41.144Z,75.579577
2022-12-31T22:05:21.601Z,75.019580
2022-12-31T22:10:16.153Z,75.733333
2022-12-31T22:15:18.329Z,76.463235
2022-12-31T22:20:27.213Z,76.515385
2022-12-31T22:25:16.543Z,76.197222
2022-12-31T22:30:17.220Z,75.640972
2022-12-31T22:35:16.416Z,75.520833
2022-12-31T22:40:17.160Z,75.975342
2022-12-31T22:45:15.591Z,76.046207
2022-12-31T22:50:22.281Z,76.247552
2022-12-31T22:55:18.853Z,76.383099
2022-12-31T23:00:16.892Z,76.392958
2022-12-31T23:05:17.433Z,76.163121
2022-12-31T23:10:16.952Z,76.377305
2022-12-31T23:15:17.578Z,76.075524
2022-12-31T23:20:17.292Z,76.168493
2022-12-31T23:25:16.481Z,76.149315
2022-12-31T23:30:16.568Z,76.238462
2022-12-31T23:35:17.686Z,76.044138
2022-12-31T23:40:21.222Z,76.040972
2022-12-31T23:45:16.619Z,75.511034
2022-12-31T23:50:17.231Z,75.248276
2022-12-31T23:55:16.241Z,75.391667
